sensor_id;sensor_type;location;lat;lon;timestamp;P1;durP1;ratioP1;P2;durP2;ratioP2
20535;SDS011;10426;49.420;8.390;2023-05-10T00:01:07;1.60;;;0.90;;
20535;SDS011;10426;49.420;8.390;2023-05-10T00:03:35;2.25;;;1.10;;
20535;SDS011;10426;49.420;8.390;2023-05-10T00:06:02;0.93;;;0.90;;
20535;SDS011;10426;49.420;8.390;2023-05-10T00:08:28;0.80;;;0.80;;
20535;SDS011;10426;49.420;8.390;2023-05-10T00:10:55;1.42;;;0.85;;
20535;SDS011;10426;49.420;8.390;2023-05-10T00:13:21;0.90;;;0.90;;
20535;SDS011;10426;49.420;8.390;2023-05-10T00:15:48;1.50;;;0.90;;
20535;SDS011;10426;49.420;8.390;2023-05-10T00:18:15;1.73;;;1.08;;
20535;SDS011;10426;49.420;8.390;2023-05-10T00:20:43;0.95;;;0.95;;
20535;SDS011;10426;49.420;8.390;2023-05-10T00:23:11;1.00;;;1.00;;
20535;SDS011;10426;49.420;8.390;2023-05-10T00:25:37;1.30;;;1.00;;
20535;SDS011;10426;49.420;8.390;2023-05-10T00:28:04;1.15;;;1.10;;
20535;SDS011;10426;49.420;8.390;2023-05-10T00:30:31;1.30;;;1.20;;
20535;SDS011;10426;49.420;8.390;2023-05-10T00:32:57;1.50;;;1.10;;
20535;SDS011;10426;49.420;8.390;2023-05-10T00:35:24;1.90;;;1.13;;
20535;SDS011;10426;49.420;8.390;2023-05-10T00:37:52;2.28;;;1.10;;
20535;SDS011;10426;49.420;8.390;2023-05-10T00:40:19;2.00;;;1.10;;
20535;SDS011;10426;49.420;8.390;2023-05-10T00:42:46;2.90;;;1.10;;
20535;SDS011;10426;49.420;8.390;2023-05-10T00:45:12;3.03;;;1.20;;
20535;SDS011;10426;49.420;8.390;2023-05-10T00:47:39;1.17;;;1.08;;
20535;SDS011;10426;49.420;8.390;2023-05-10T00:50:06;1.10;;;1.10;;
20535;SDS011;10426;49.420;8.390;2023-05-10T00:52:34;2.78;;;1.17;;
20535;SDS011;10426;49.420;8.390;2023-05-10T00:55:02;0.95;;;0.95;;
20535;SDS011;10426;49.420;8.390;2023-05-10T00:57:29;1.00;;;1.00;;
20535;SDS011;10426;49.420;8.390;2023-05-10T00:59:56;0.95;;;0.85;;
20535;SDS011;10426;49.420;8.390;2023-05-10T01:02:23;1.35;;;0.90;;
20535;SDS011;10426;49.420;8.390;2023-05-10T01:04:50;1.30;;;0.95;;
20535;SDS011;10426;49.420;8.390;2023-05-10T01:07:17;1.17;;;0.90;;
20535;SDS011;10426;49.420;8.390;2023-05-10T01:09:44;1.40;;;0.97;;
20535;SDS011;10426;49.420;8.390;2023-05-10T01:12:12;1.85;;;1.00;;
20535;SDS011;10426;49.420;8.390;2023-05-10T01:14:39;0.93;;;0.90;;
20535;SDS011;10426;49.420;8.390;2023-05-10T01:17:06;1.85;;;0.95;;
20535;SDS011;10426;49.420;8.390;2023-05-10T01:19:34;1.17;;;1.10;;
20535;SDS011;10426;49.420;8.390;2023-05-10T01:22:04;0.90;;;0.90;;
20535;SDS011;10426;49.420;8.390;2023-05-10T01:24:58;1.02;;;0.90;;
20535;SDS011;10426;49.420;8.390;2023-05-10T01:27:40;1.10;;;1.00;;
20535;SDS011;10426;49.420;8.390;2023-05-10T01:30:16;1.40;;;1.10;;
20535;SDS011;10426;49.420;8.390;2023-05-10T01:32:54;0.90;;;0.90;;
20535;SDS011;10426;49.420;8.390;2023-05-10T01:35:23;1.95;;;0.90;;
20535;SDS011;10426;49.420;8.390;2023-05-10T01:37:55;0.90;;;0.90;;
20535;SDS011;10426;49.420;8.390;2023-05-10T01:40:26;2.90;;;1.00;;
20535;SDS011;10426;49.420;8.390;2023-05-10T01:42:56;2.22;;;1.23;;
20535;SDS011;10426;49.420;8.390;2023-05-10T01:45:27;0.98;;;0.98;;
20535;SDS011;10426;49.420;8.390;2023-05-10T01:48:01;1.65;;;1.02;;
20535;SDS011;10426;49.420;8.390;2023-05-10T01:50:30;1.80;;;1.00;;
20535;SDS011;10426;49.420;8.390;2023-05-10T01:52:59;2.17;;;0.90;;
20535;SDS011;10426;49.420;8.390;2023-05-10T01:55:28;0.90;;;0.90;;
20535;SDS011;10426;49.420;8.390;2023-05-10T01:57:58;0.88;;;0.88;;
20535;SDS011;10426;49.420;8.390;2023-05-10T02:00:25;1.90;;;1.10;;
20535;SDS011;10426;49.420;8.390;2023-05-10T02:02:52;1.27;;;1.05;;
20535;SDS011;10426;49.420;8.390;2023-05-10T02:05:21;1.10;;;1.10;;
20535;SDS011;10426;49.420;8.390;2023-05-10T02:07:48;1.20;;;1.08;;
20535;SDS011;10426;49.420;8.390;2023-05-10T02:10:15;2.35;;;1.17;;
20535;SDS011;10426;49.420;8.390;2023-05-10T02:12:43;1.00;;;1.00;;
20535;SDS011;10426;49.420;8.390;2023-05-10T02:15:11;2.30;;;1.00;;
20535;SDS011;10426;49.420;8.390;2023-05-10T02:17:39;0.85;;;0.85;;
20535;SDS011;10426;49.420;8.390;2023-05-10T02:20:06;1.00;;;1.00;;
20535;SDS011;10426;49.420;8.390;2023-05-10T02:22:34;1.00;;;1.00;;
20535;SDS011;10426;49.420;8.390;2023-05-10T02:25:01;0.90;;;0.90;;
20535;SDS011;10426;49.420;8.390;2023-05-10T02:27:29;2.03;;;0.90;;
20535;SDS011;10426;49.420;8.390;2023-05-10T02:29:56;2.20;;;1.10;;
20535;SDS011;10426;49.420;8.390;2023-05-10T02:32:24;1.10;;;1.00;;
20535;SDS011;10426;49.420;8.390;2023-05-10T02:34:52;3.38;;;1.10;;
20535;SDS011;10426;49.420;8.390;2023-05-10T02:37:19;2.35;;;1.40;;
20535;SDS011;10426;49.420;8.390;2023-05-10T02:39:48;2.92;;;1.27;;
20535;SDS011;10426;49.420;8.390;2023-05-10T02:42:15;1.88;;;1.67;;
20535;SDS011;10426;49.420;8.390;2023-05-10T02:44:43;1.48;;;1.38;;
20535;SDS011;10426;49.420;8.390;2023-05-10T02:47:11;1.55;;;1.45;;
20535;SDS011;10426;49.420;8.390;2023-05-10T02:49:38;1.60;;;1.50;;
20535;SDS011;10426;49.420;8.390;2023-05-10T02:52:05;1.75;;;1.65;;
20535;SDS011;10426;49.420;8.390;2023-05-10T02:54:36;2.08;;;1.63;;
20535;SDS011;10426;49.420;8.390;2023-05-10T02:57:07;2.03;;;1.58;;
20535;SDS011;10426;49.420;8.390;2023-05-10T02:59:35;1.48;;;1.48;;
20535;SDS011;10426;49.420;8.390;2023-05-10T03:02:02;1.70;;;1.60;;
20535;SDS011;10426;49.420;8.390;2023-05-10T03:04:29;1.40;;;1.40;;
20535;SDS011;10426;49.420;8.390;2023-05-10T03:06:55;2.10;;;1.20;;
20535;SDS011;10426;49.420;8.390;2023-05-10T03:09:22;1.80;;;1.30;;
20535;SDS011;10426;49.420;8.390;2023-05-10T03:11:51;3.17;;;1.20;;
20535;SDS011;10426;49.420;8.390;2023-05-10T03:14:24;2.22;;;1.30;;
20535;SDS011;10426;49.420;8.390;2023-05-10T03:16:56;2.40;;;1.30;;
20535;SDS011;10426;49.420;8.390;2023-05-10T03:19:26;2.00;;;1.30;;
20535;SDS011;10426;49.420;8.390;2023-05-10T03:21:53;2.00;;;1.40;;
20535;SDS011;10426;49.420;8.390;2023-05-10T03:24:21;1.75;;;1.60;;
20535;SDS011;10426;49.420;8.390;2023-05-10T03:26:49;1.60;;;1.50;;
20535;SDS011;10426;49.420;8.390;2023-05-10T03:29:17;1.63;;;1.63;;
20535;SDS011;10426;49.420;8.390;2023-05-10T03:31:46;1.73;;;1.63;;
20535;SDS011;10426;49.420;8.390;2023-05-10T03:34:12;2.85;;;1.70;;
20535;SDS011;10426;49.420;8.390;2023-05-10T03:36:39;1.60;;;1.50;;
20535;SDS011;10426;49.420;8.390;2023-05-10T03:39:06;1.63;;;1.50;;
20535;SDS011;10426;49.420;8.390;2023-05-10T03:41:32;2.50;;;1.58;;
20535;SDS011;10426;49.420;8.390;2023-05-10T03:43:59;1.65;;;1.55;;
20535;SDS011;10426;49.420;8.390;2023-05-10T03:46:25;1.83;;;1.73;;
20535;SDS011;10426;49.420;8.390;2023-05-10T03:48:53;2.08;;;1.98;;
20535;SDS011;10426;49.420;8.390;2023-05-10T03:51:20;2.13;;;1.80;;
20535;SDS011;10426;49.420;8.390;2023-05-10T03:53:47;2.92;;;1.80;;
20535;SDS011;10426;49.420;8.390;2023-05-10T03:56:14;1.60;;;1.50;;
20535;SDS011;10426;49.420;8.390;2023-05-10T03:58:40;1.70;;;1.60;;
20535;SDS011;10426;49.420;8.390;2023-05-10T04:01:07;1.80;;;1.70;;
20535;SDS011;10426;49.420;8.390;2023-05-10T04:03:33;2.28;;;1.73;;
20535;SDS011;10426;49.420;8.390;2023-05-10T04:06:03;3.45;;;1.80;;
20535;SDS011;10426;49.420;8.390;2023-05-10T04:08:29;2.42;;;1.63;;
20535;SDS011;10426;49.420;8.390;2023-05-10T04:11:04;1.92;;;1.83;;
20535;SDS011;10426;49.420;8.390;2023-05-10T04:13:31;2.30;;;1.70;;
20535;SDS011;10426;49.420;8.390;2023-05-10T04:15:57;2.00;;;1.90;;
20535;SDS011;10426;49.420;8.390;2023-05-10T04:18:24;1.70;;;1.60;;
20535;SDS011;10426;49.420;8.390;2023-05-10T04:20:50;1.70;;;1.60;;
20535;SDS011;10426;49.420;8.390;2023-05-10T04:23:18;1.70;;;1.60;;
20535;SDS011;10426;49.420;8.390;2023-05-10T04:25:45;1.50;;;1.40;;
20535;SDS011;10426;49.420;8.390;2023-05-10T04:28:12;1.65;;;1.40;;
20535;SDS011;10426;49.420;8.390;2023-05-10T04:30:38;1.45;;;1.40;;
20535;SDS011;10426;49.420;8.390;2023-05-10T04:33:05;1.50;;;1.40;;
20535;SDS011;10426;49.420;8.390;2023-05-10T04:35:32;1.40;;;1.30;;
20535;SDS011;10426;49.420;8.390;2023-05-10T04:37:59;3.63;;;1.60;;
20535;SDS011;10426;49.420;8.390;2023-05-10T04:40:27;1.80;;;1.20;;
20535;SDS011;10426;49.420;8.390;2023-05-10T04:42:54;1.27;;;1.27;;
20535;SDS011;10426;49.420;8.390;2023-05-10T04:45:20;2.75;;;1.30;;
20535;SDS011;10426;49.420;8.390;2023-05-10T04:47:47;1.60;;;1.40;;
20535;SDS011;10426;49.420;8.390;2023-05-10T04:50:14;1.40;;;1.30;;
20535;SDS011;10426;49.420;8.390;2023-05-10T04:52:40;2.00;;;1.40;;
20535;SDS011;10426;49.420;8.390;2023-05-10T04:55:07;1.50;;;1.40;;
20535;SDS011;10426;49.420;8.390;2023-05-10T04:57:36;2.28;;;1.50;;
20535;SDS011;10426;49.420;8.390;2023-05-10T05:00:03;1.65;;;1.55;;
20535;SDS011;10426;49.420;8.390;2023-05-10T05:02:30;1.52;;;1.38;;
20535;SDS011;10426;49.420;8.390;2023-05-10T05:04:56;1.63;;;1.50;;
20535;SDS011;10426;49.420;8.390;2023-05-10T05:07:24;1.60;;;1.50;;
20535;SDS011;10426;49.420;8.390;2023-05-10T05:09:50;1.40;;;1.40;;
20535;SDS011;10426;49.420;8.390;2023-05-10T05:12:17;1.70;;;1.60;;
20535;SDS011;10426;49.420;8.390;2023-05-10T05:14:45;5.75;;;1.70;;
20535;SDS011;10426;49.420;8.390;2023-05-10T05:17:11;1.70;;;1.60;;
20535;SDS011;10426;49.420;8.390;2023-05-10T05:19:38;1.70;;;1.45;;
20535;SDS011;10426;49.420;8.390;2023-05-10T05:22:06;1.63;;;1.52;;
20535;SDS011;10426;49.420;8.390;2023-05-10T05:24:34;1.60;;;1.50;;
20535;SDS011;10426;49.420;8.390;2023-05-10T05:27:01;2.10;;;1.60;;
20535;SDS011;10426;49.420;8.390;2023-05-10T05:29:27;1.67;;;1.60;;
20535;SDS011;10426;49.420;8.390;2023-05-10T05:31:55;1.80;;;1.70;;
20535;SDS011;10426;49.420;8.390;2023-05-10T05:34:22;2.05;;;1.95;;
20535;SDS011;10426;49.420;8.390;2023-05-10T05:36:49;2.00;;;1.90;;
20535;SDS011;10426;49.420;8.390;2023-05-10T05:39:16;2.15;;;2.05;;
20535;SDS011;10426;49.420;8.390;2023-05-10T05:41:42;2.22;;;2.03;;
20535;SDS011;10426;49.420;8.390;2023-05-10T05:44:09;1.90;;;1.80;;
20535;SDS011;10426;49.420;8.390;2023-05-10T05:46:36;2.10;;;2.00;;
20535;SDS011;10426;49.420;8.390;2023-05-10T05:49:04;2.78;;;2.00;;
20535;SDS011;10426;49.420;8.390;2023-05-10T05:51:30;2.30;;;2.10;;
20535;SDS011;10426;49.420;8.390;2023-05-10T05:53:57;2.00;;;1.88;;
20535;SDS011;10426;49.420;8.390;2023-05-10T05:56:24;1.85;;;1.75;;
20535;SDS011;10426;49.420;8.390;2023-05-10T05:58:50;3.83;;;2.10;;
20535;SDS011;10426;49.420;8.390;2023-05-10T06:01:17;4.18;;;2.50;;
20535;SDS011;10426;49.420;8.390;2023-05-10T06:03:44;4.18;;;2.50;;
20535;SDS011;10426;49.420;8.390;2023-05-10T06:06:11;3.67;;;2.40;;
20535;SDS011;10426;49.420;8.390;2023-05-10T06:08:38;2.40;;;2.30;;
20535;SDS011;10426;49.420;8.390;2023-05-10T06:11:05;2.72;;;2.30;;
20535;SDS011;10426;49.420;8.390;2023-05-10T06:13:32;2.30;;;2.20;;
20535;SDS011;10426;49.420;8.390;2023-05-10T06:16:00;2.50;;;2.30;;
20535;SDS011;10426;49.420;8.390;2023-05-10T06:18:27;3.22;;;2.40;;
20535;SDS011;10426;49.420;8.390;2023-05-10T06:20:53;2.40;;;2.30;;
20535;SDS011;10426;49.420;8.390;2023-05-10T06:23:21;2.55;;;2.40;;
20535;SDS011;10426;49.420;8.390;2023-05-10T06:25:48;2.45;;;2.35;;
20535;SDS011;10426;49.420;8.390;2023-05-10T06:28:15;2.35;;;2.25;;
20535;SDS011;10426;49.420;8.390;2023-05-10T06:30:41;2.53;;;2.35;;
20535;SDS011;10426;49.420;8.390;2023-05-10T06:33:08;2.40;;;2.10;;
20535;SDS011;10426;49.420;8.390;2023-05-10T06:35:35;1.95;;;1.85;;
20535;SDS011;10426;49.420;8.390;2023-05-10T06:38:02;2.88;;;1.92;;
20535;SDS011;10426;49.420;8.390;2023-05-10T06:40:30;2.60;;;2.20;;
20535;SDS011;10426;49.420;8.390;2023-05-10T06:42:56;2.10;;;1.65;;
20535;SDS011;10426;49.420;8.390;2023-05-10T06:45:23;2.30;;;1.60;;
20535;SDS011;10426;49.420;8.390;2023-05-10T06:47:50;2.03;;;1.80;;
20535;SDS011;10426;49.420;8.390;2023-05-10T06:50:16;1.80;;;1.70;;
20535;SDS011;10426;49.420;8.390;2023-05-10T06:52:43;2.03;;;1.70;;
20535;SDS011;10426;49.420;8.390;2023-05-10T06:55:09;1.92;;;1.83;;
20535;SDS011;10426;49.420;8.390;2023-05-10T06:57:38;2.85;;;1.85;;
20535;SDS011;10426;49.420;8.390;2023-05-10T07:00:05;1.90;;;1.80;;
20535;SDS011;10426;49.420;8.390;2023-05-10T07:02:32;1.83;;;1.73;;
20535;SDS011;10426;49.420;8.390;2023-05-10T07:04:58;2.40;;;2.00;;
20535;SDS011;10426;49.420;8.390;2023-05-10T07:07:25;3.17;;;2.88;;
20535;SDS011;10426;49.420;8.390;2023-05-10T07:09:51;3.92;;;3.50;;
20535;SDS011;10426;49.420;8.390;2023-05-10T07:12:18;3.53;;;3.03;;
20535;SDS011;10426;49.420;8.390;2023-05-10T07:14:46;14.60;;;8.35;;
20535;SDS011;10426;49.420;8.390;2023-05-10T07:17:13;14.65;;;5.65;;
20535;SDS011;10426;49.420;8.390;2023-05-10T07:19:39;3.70;;;2.60;;
20535;SDS011;10426;49.420;8.390;2023-05-10T07:22:06;2.08;;;1.90;;
20535;SDS011;10426;49.420;8.390;2023-05-10T07:24:33;2.58;;;2.25;;
20535;SDS011;10426;49.420;8.390;2023-05-10T07:27:00;1.77;;;1.50;;
20535;SDS011;10426;49.420;8.390;2023-05-10T07:29:27;1.63;;;1.53;;
20535;SDS011;10426;49.420;8.390;2023-05-10T07:31:55;2.05;;;1.40;;
20535;SDS011;10426;49.420;8.390;2023-05-10T07:34:21;2.15;;;1.42;;
20535;SDS011;10426;49.420;8.390;2023-05-10T07:36:48;1.60;;;1.50;;
20535;SDS011;10426;49.420;8.390;2023-05-10T07:39:14;1.40;;;1.27;;
20535;SDS011;10426;49.420;8.390;2023-05-10T07:41:42;2.00;;;1.30;;
20535;SDS011;10426;49.420;8.390;2023-05-10T07:44:08;2.80;;;1.30;;
20535;SDS011;10426;49.420;8.390;2023-05-10T07:46:35;1.13;;;1.13;;
20535;SDS011;10426;49.420;8.390;2023-05-10T07:49:03;1.10;;;1.10;;
20535;SDS011;10426;49.420;8.390;2023-05-10T07:51:30;1.92;;;1.00;;
20535;SDS011;10426;49.420;8.390;2023-05-10T07:53:57;1.05;;;1.00;;
20535;SDS011;10426;49.420;8.390;2023-05-10T07:56:24;1.20;;;1.10;;
20535;SDS011;10426;49.420;8.390;2023-05-10T07:58:52;1.27;;;1.20;;
20535;SDS011;10426;49.420;8.390;2023-05-10T08:01:19;1.17;;;1.10;;
20535;SDS011;10426;49.420;8.390;2023-05-10T08:03:46;1.10;;;1.10;;
20535;SDS011;10426;49.420;8.390;2023-05-10T08:06:14;1.25;;;1.00;;
20535;SDS011;10426;49.420;8.390;2023-05-10T08:08:41;1.45;;;0.85;;
20535;SDS011;10426;49.420;8.390;2023-05-10T08:11:08;1.00;;;0.90;;
20535;SDS011;10426;49.420;8.390;2023-05-10T08:13:34;1.55;;;0.70;;
20535;SDS011;10426;49.420;8.390;2023-05-10T08:16:01;0.90;;;0.70;;
20535;SDS011;10426;49.420;8.390;2023-05-10T08:18:27;0.90;;;0.70;;
20535;SDS011;10426;49.420;8.390;2023-05-10T08:20:54;0.90;;;0.80;;
20535;SDS011;10426;49.420;8.390;2023-05-10T08:23:22;1.05;;;1.02;;
20535;SDS011;10426;49.420;8.390;2023-05-10T08:25:48;0.80;;;0.80;;
20535;SDS011;10426;49.420;8.390;2023-05-10T08:28:15;0.73;;;0.73;;
20535;SDS011;10426;49.420;8.390;2023-05-10T08:30:42;1.00;;;0.82;;
20535;SDS011;10426;49.420;8.390;2023-05-10T08:33:08;0.90;;;0.90;;
20535;SDS011;10426;49.420;8.390;2023-05-10T08:35:35;1.17;;;0.88;;
20535;SDS011;10426;49.420;8.390;2023-05-10T08:38:01;1.30;;;0.73;;
20535;SDS011;10426;49.420;8.390;2023-05-10T08:40:29;0.93;;;0.80;;
20535;SDS011;10426;49.420;8.390;2023-05-10T08:42:58;1.27;;;0.90;;
20535;SDS011;10426;49.420;8.390;2023-05-10T08:45:25;0.90;;;0.90;;
20535;SDS011;10426;49.420;8.390;2023-05-10T08:47:53;0.82;;;0.80;;
20535;SDS011;10426;49.420;8.390;2023-05-10T08:50:20;1.42;;;1.10;;
20535;SDS011;10426;49.420;8.390;2023-05-10T08:52:47;1.38;;;1.08;;
20535;SDS011;10426;49.420;8.390;2023-05-10T08:55:14;1.30;;;0.90;;
20535;SDS011;10426;49.420;8.390;2023-05-10T08:57:43;1.00;;;1.00;;
20535;SDS011;10426;49.420;8.390;2023-05-10T09:00:10;1.20;;;0.80;;
20535;SDS011;10426;49.420;8.390;2023-05-10T09:02:37;2.03;;;1.00;;
20535;SDS011;10426;49.420;8.390;2023-05-10T09:05:04;1.10;;;0.90;;
20535;SDS011;10426;49.420;8.390;2023-05-10T09:07:31;1.37;;;0.70;;
20535;SDS011;10426;49.420;8.390;2023-05-10T09:09:58;0.73;;;0.73;;
20535;SDS011;10426;49.420;8.390;2023-05-10T09:12:24;0.90;;;0.90;;
20535;SDS011;10426;49.420;8.390;2023-05-10T09:14:52;1.25;;;0.80;;
20535;SDS011;10426;49.420;8.390;2023-05-10T09:17:20;1.03;;;0.93;;
20535;SDS011;10426;49.420;8.390;2023-05-10T09:19:47;0.68;;;0.68;;
20535;SDS011;10426;49.420;8.390;2023-05-10T09:22:14;0.95;;;0.95;;
20535;SDS011;10426;49.420;8.390;2023-05-10T09:24:42;0.90;;;0.90;;
20535;SDS011;10426;49.420;8.390;2023-05-10T09:27:10;1.00;;;0.65;;
20535;SDS011;10426;49.420;8.390;2023-05-10T09:29:40;1.10;;;0.75;;
20535;SDS011;10426;49.420;8.390;2023-05-10T09:32:08;0.75;;;0.73;;
20535;SDS011;10426;49.420;8.390;2023-05-10T09:34:34;0.95;;;0.80;;
20535;SDS011;10426;49.420;8.390;2023-05-10T09:37:05;0.93;;;0.88;;
20535;SDS011;10426;49.420;8.390;2023-05-10T09:39:32;0.80;;;0.80;;
20535;SDS011;10426;49.420;8.390;2023-05-10T09:41:59;1.33;;;0.85;;
20535;SDS011;10426;49.420;8.390;2023-05-10T09:44:26;0.70;;;0.70;;
20535;SDS011;10426;49.420;8.390;2023-05-10T09:46:53;0.73;;;0.73;;
20535;SDS011;10426;49.420;8.390;2023-05-10T09:49:21;2.38;;;1.08;;
20535;SDS011;10426;49.420;8.390;2023-05-10T09:51:57;0.90;;;0.90;;
20535;SDS011;10426;49.420;8.390;2023-05-10T09:54:25;1.42;;;0.70;;
20535;SDS011;10426;49.420;8.390;2023-05-10T09:56:52;0.60;;;0.60;;
20535;SDS011;10426;49.420;8.390;2023-05-10T09:59:18;0.70;;;0.70;;
20535;SDS011;10426;49.420;8.390;2023-05-10T10:01:49;0.65;;;0.50;;
20535;SDS011;10426;49.420;8.390;2023-05-10T10:04:15;0.70;;;0.70;;
20535;SDS011;10426;49.420;8.390;2023-05-10T10:06:44;0.70;;;0.70;;
20535;SDS011;10426;49.420;8.390;2023-05-10T10:09:10;1.33;;;0.70;;
20535;SDS011;10426;49.420;8.390;2023-05-10T10:11:37;2.80;;;0.88;;
20535;SDS011;10426;49.420;8.390;2023-05-10T10:14:05;1.00;;;0.60;;
20535;SDS011;10426;49.420;8.390;2023-05-10T10:16:31;1.40;;;0.80;;
20535;SDS011;10426;49.420;8.390;2023-05-10T10:18:58;1.85;;;0.80;;
20535;SDS011;10426;49.420;8.390;2023-05-10T10:21:25;0.90;;;0.60;;
20535;SDS011;10426;49.420;8.390;2023-05-10T10:23:53;2.80;;;0.70;;
20535;SDS011;10426;49.420;8.390;2023-05-10T10:26:19;1.10;;;0.80;;
20535;SDS011;10426;49.420;8.390;2023-05-10T10:28:48;0.63;;;0.63;;
20535;SDS011;10426;49.420;8.390;2023-05-10T10:31:18;0.70;;;0.70;;
20535;SDS011;10426;49.420;8.390;2023-05-10T10:33:51;0.90;;;0.75;;
20535;SDS011;10426;49.420;8.390;2023-05-10T10:36:22;1.20;;;0.80;;
20535;SDS011;10426;49.420;8.390;2023-05-10T10:38:56;1.17;;;0.70;;
20535;SDS011;10426;49.420;8.390;2023-05-10T10:41:28;1.60;;;0.70;;
20535;SDS011;10426;49.420;8.390;2023-05-10T10:46:46;0.60;;;0.60;;
20535;SDS011;10426;49.420;8.390;2023-05-10T10:49:24;1.13;;;0.70;;
20535;SDS011;10426;49.420;8.390;2023-05-10T10:54:37;1.00;;;0.70;;
20535;SDS011;10426;49.420;8.390;2023-05-10T10:57:10;0.60;;;0.60;;
20535;SDS011;10426;49.420;8.390;2023-05-10T10:59:40;2.28;;;0.70;;
20535;SDS011;10426;49.420;8.390;2023-05-10T11:02:07;1.33;;;0.65;;
20535;SDS011;10426;49.420;8.390;2023-05-10T11:04:41;2.43;;;0.70;;
20535;SDS011;10426;49.420;8.390;2023-05-10T11:07:17;0.68;;;0.60;;
20535;SDS011;10426;49.420;8.390;2023-05-10T11:09:45;0.75;;;0.70;;
20535;SDS011;10426;49.420;8.390;2023-05-10T11:12:12;0.50;;;0.50;;
20535;SDS011;10426;49.420;8.390;2023-05-10T11:14:39;1.50;;;0.70;;
20535;SDS011;10426;49.420;8.390;2023-05-10T11:20:02;1.10;;;0.70;;
20535;SDS011;10426;49.420;8.390;2023-05-10T11:22:29;0.63;;;0.60;;
20535;SDS011;10426;49.420;8.390;2023-05-10T11:25:16;1.40;;;0.70;;
20535;SDS011;10426;49.420;8.390;2023-05-10T11:27:43;1.70;;;0.63;;
20535;SDS011;10426;49.420;8.390;2023-05-10T11:30:10;0.70;;;0.70;;
20535;SDS011;10426;49.420;8.390;2023-05-10T11:32:37;1.40;;;0.75;;
20535;SDS011;10426;49.420;8.390;2023-05-10T11:35:06;1.20;;;0.60;;
20535;SDS011;10426;49.420;8.390;2023-05-10T11:37:33;1.30;;;0.70;;
20535;SDS011;10426;49.420;8.390;2023-05-10T11:39:59;0.80;;;0.60;;
20535;SDS011;10426;49.420;8.390;2023-05-10T11:42:28;0.80;;;0.70;;
20535;SDS011;10426;49.420;8.390;2023-05-10T11:44:55;1.08;;;0.80;;
20535;SDS011;10426;49.420;8.390;2023-05-10T11:47:22;1.20;;;0.77;;
20535;SDS011;10426;49.420;8.390;2023-05-10T11:49:48;1.52;;;0.60;;
20535;SDS011;10426;49.420;8.390;2023-05-10T11:52:15;0.82;;;0.70;;
20535;SDS011;10426;49.420;8.390;2023-05-10T11:54:45;2.10;;;0.70;;
20535;SDS011;10426;49.420;8.390;2023-05-10T11:57:12;1.52;;;0.98;;
20535;SDS011;10426;49.420;8.390;2023-05-10T11:59:40;1.45;;;0.80;;
20535;SDS011;10426;49.420;8.390;2023-05-10T12:02:07;1.15;;;0.75;;
20535;SDS011;10426;49.420;8.390;2023-05-10T12:04:33;1.30;;;0.73;;
20535;SDS011;10426;49.420;8.390;2023-05-10T12:07:00;0.90;;;0.70;;
20535;SDS011;10426;49.420;8.390;2023-05-10T12:09:27;1.30;;;0.90;;
20535;SDS011;10426;49.420;8.390;2023-05-10T12:11:55;1.05;;;0.80;;
20535;SDS011;10426;49.420;8.390;2023-05-10T12:14:21;1.38;;;0.90;;
20535;SDS011;10426;49.420;8.390;2023-05-10T12:16:51;2.55;;;1.10;;
20535;SDS011;10426;49.420;8.390;2023-05-10T12:19:18;2.10;;;0.98;;
20535;SDS011;10426;49.420;8.390;2023-05-10T12:21:44;1.77;;;1.00;;
20535;SDS011;10426;49.420;8.390;2023-05-10T12:24:11;1.60;;;0.90;;
20535;SDS011;10426;49.420;8.390;2023-05-10T12:26:39;3.47;;;1.00;;
20535;SDS011;10426;49.420;8.390;2023-05-10T12:29:12;2.90;;;0.80;;
20535;SDS011;10426;49.420;8.390;2023-05-10T12:31:55;2.30;;;0.90;;
20535;SDS011;10426;49.420;8.390;2023-05-10T12:34:22;5.40;;;0.80;;
20535;SDS011;10426;49.420;8.390;2023-05-10T12:36:49;1.33;;;0.82;;
20535;SDS011;10426;49.420;8.390;2023-05-10T12:39:16;1.15;;;0.70;;
20535;SDS011;10426;49.420;8.390;2023-05-10T12:41:43;4.82;;;1.20;;
20535;SDS011;10426;49.420;8.390;2023-05-10T12:44:09;2.50;;;0.90;;
20535;SDS011;10426;49.420;8.390;2023-05-10T12:46:36;1.52;;;0.90;;
20535;SDS011;10426;49.420;8.390;2023-05-10T12:49:04;2.20;;;0.90;;
20535;SDS011;10426;49.420;8.390;2023-05-10T12:51:31;3.83;;;0.82;;
20535;SDS011;10426;49.420;8.390;2023-05-10T12:53:57;1.13;;;0.98;;
20535;SDS011;10426;49.420;8.390;2023-05-10T12:56:24;2.67;;;0.90;;
20535;SDS011;10426;49.420;8.390;2023-05-10T12:58:51;0.80;;;0.80;;
20535;SDS011;10426;49.420;8.390;2023-05-10T13:01:17;2.10;;;0.70;;
20535;SDS011;10426;49.420;8.390;2023-05-10T13:03:44;1.42;;;0.63;;
20535;SDS011;10426;49.420;8.390;2023-05-10T13:06:12;0.90;;;0.80;;
20535;SDS011;10426;49.420;8.390;2023-05-10T13:08:39;1.42;;;0.82;;
20535;SDS011;10426;49.420;8.390;2023-05-10T13:11:06;2.95;;;0.77;;
20535;SDS011;10426;49.420;8.390;2023-05-10T13:13:33;0.90;;;0.68;;
20535;SDS011;10426;49.420;8.390;2023-05-10T13:16:00;1.83;;;0.75;;
20535;SDS011;10426;49.420;8.390;2023-05-10T13:18:26;2.30;;;0.80;;
20535;SDS011;10426;49.420;8.390;2023-05-10T13:20:53;1.60;;;0.70;;
20535;SDS011;10426;49.420;8.390;2023-05-10T13:23:21;1.00;;;0.53;;
20535;SDS011;10426;49.420;8.390;2023-05-10T13:25:48;2.05;;;0.68;;
20535;SDS011;10426;49.420;8.390;2023-05-10T13:28:14;0.85;;;0.60;;
20535;SDS011;10426;49.420;8.390;2023-05-10T13:30:41;0.90;;;0.60;;
20535;SDS011;10426;49.420;8.390;2023-05-10T13:33:07;2.10;;;0.60;;
20535;SDS011;10426;49.420;8.390;2023-05-10T13:35:34;0.52;;;0.50;;
20535;SDS011;10426;49.420;8.390;2023-05-10T13:38:01;1.02;;;0.60;;
20535;SDS011;10426;49.420;8.390;2023-05-10T13:40:29;2.33;;;0.52;;
20535;SDS011;10426;49.420;8.390;2023-05-10T13:42:55;2.55;;;0.90;;
20535;SDS011;10426;49.420;8.390;2023-05-10T13:45:22;1.80;;;0.65;;
20535;SDS011;10426;49.420;8.390;2023-05-10T13:47:49;1.02;;;0.50;;
20535;SDS011;10426;49.420;8.390;2023-05-10T13:50:15;1.40;;;1.00;;
20535;SDS011;10426;49.420;8.390;2023-05-10T13:52:42;0.95;;;0.60;;
20535;SDS011;10426;49.420;8.390;2023-05-10T13:55:08;0.98;;;0.90;;
20535;SDS011;10426;49.420;8.390;2023-05-10T13:57:39;0.88;;;0.60;;
20535;SDS011;10426;49.420;8.390;2023-05-10T14:00:06;0.45;;;0.45;;
20535;SDS011;10426;49.420;8.390;2023-05-10T14:02:33;0.68;;;0.50;;
20535;SDS011;10426;49.420;8.390;2023-05-10T14:05:00;2.30;;;0.70;;
20535;SDS011;10426;49.420;8.390;2023-05-10T14:07:26;0.50;;;0.50;;
20535;SDS011;10426;49.420;8.390;2023-05-10T14:09:53;0.77;;;0.63;;
20535;SDS011;10426;49.420;8.390;2023-05-10T14:12:19;1.02;;;0.50;;
20535;SDS011;10426;49.420;8.390;2023-05-10T14:14:47;1.92;;;0.73;;
20535;SDS011;10426;49.420;8.390;2023-05-10T14:17:14;1.33;;;0.50;;
20535;SDS011;10426;49.420;8.390;2023-05-10T14:19:41;1.30;;;0.60;;
20535;SDS011;10426;49.420;8.390;2023-05-10T14:22:07;1.70;;;0.68;;
20535;SDS011;10426;49.420;8.390;2023-05-10T14:24:34;0.52;;;0.52;;
20535;SDS011;10426;49.420;8.390;2023-05-10T14:27:01;0.70;;;0.60;;
20535;SDS011;10426;49.420;8.390;2023-05-10T14:29:27;2.78;;;0.70;;
20535;SDS011;10426;49.420;8.390;2023-05-10T14:31:55;0.80;;;0.60;;
20535;SDS011;10426;49.420;8.390;2023-05-10T14:34:22;0.93;;;0.50;;
20535;SDS011;10426;49.420;8.390;2023-05-10T14:36:49;1.40;;;0.50;;
20535;SDS011;10426;49.420;8.390;2023-05-10T14:39:16;1.15;;;0.50;;
20535;SDS011;10426;49.420;8.390;2023-05-10T14:41:42;0.80;;;0.50;;
20535;SDS011;10426;49.420;8.390;2023-05-10T14:44:10;1.23;;;0.47;;
20535;SDS011;10426;49.420;8.390;2023-05-10T14:46:37;0.75;;;0.50;;
20535;SDS011;10426;49.420;8.390;2023-05-10T14:49:06;0.70;;;0.40;;
20535;SDS011;10426;49.420;8.390;2023-05-10T14:51:32;0.55;;;0.55;;
20535;SDS011;10426;49.420;8.390;2023-05-10T14:53:59;0.80;;;0.40;;
20535;SDS011;10426;49.420;8.390;2023-05-10T14:56:26;2.55;;;0.68;;
20535;SDS011;10426;49.420;8.390;2023-05-10T14:58:53;0.60;;;0.50;;